sensor_id;sensor_type;location;lat;lon;timestamp;P1;durP1;ratioP1;P2;durP2;ratioP2
39266;SDS011;24967;51.154;13.812;2023-03-01T00:01:20;38.10;;;19.50;;
39266;SDS011;24967;51.154;13.812;2023-03-01T00:03:50;39.70;;;19.17;;
39266;SDS011;24967;51.154;13.812;2023-03-01T00:06:19;36.85;;;19.15;;
39266;SDS011;24967;51.154;13.812;2023-03-01T00:08:50;37.63;;;19.05;;
39266;SDS011;24967;51.154;13.812;2023-03-01T00:11:19;39.55;;;19.15;;
39266;SDS011;24967;51.154;13.812;2023-03-01T00:13:51;34.50;;;17.95;;
39266;SDS011;24967;51.154;13.812;2023-03-01T00:16:24;38.45;;;20.67;;
39266;SDS011;24967;51.154;13.812;2023-03-01T00:18:54;36.50;;;18.75;;
39266;SDS011;24967;51.154;13.812;2023-03-01T00:21:23;35.33;;;19.63;;
39266;SDS011;24967;51.154;13.812;2023-03-01T00:26:23;42.72;;;19.95;;
39266;SDS011;24967;51.154;13.812;2023-03-01T00:28:53;35.65;;;18.23;;
39266;SDS011;24967;51.154;13.812;2023-03-01T00:31:25;40.28;;;19.70;;
39266;SDS011;24967;51.154;13.812;2023-03-01T00:33:59;40.53;;;19.27;;
39266;SDS011;24967;51.154;13.812;2023-03-01T00:38:57;43.35;;;20.08;;
39266;SDS011;24967;51.154;13.812;2023-03-01T00:41:26;37.28;;;19.48;;
39266;SDS011;24967;51.154;13.812;2023-03-01T00:43:54;40.35;;;21.67;;
39266;SDS011;24967;51.154;13.812;2023-03-01T00:46:25;44.67;;;21.55;;
39266;SDS011;24967;51.154;13.812;2023-03-01T00:48:55;40.20;;;20.23;;
39266;SDS011;24967;51.154;13.812;2023-03-01T00:51:24;29.05;;;16.08;;
39266;SDS011;24967;51.154;13.812;2023-03-01T00:53:55;42.30;;;21.10;;
39266;SDS011;24967;51.154;13.812;2023-03-01T00:56:25;39.47;;;21.25;;
39266;SDS011;24967;51.154;13.812;2023-03-01T00:58:54;40.75;;;20.63;;
39266;SDS011;24967;51.154;13.812;2023-03-01T01:01:25;40.08;;;20.42;;
39266;SDS011;24967;51.154;13.812;2023-03-01T01:03:57;43.10;;;20.75;;
39266;SDS011;24967;51.154;13.812;2023-03-01T01:06:27;35.72;;;19.98;;
39266;SDS011;24967;51.154;13.812;2023-03-01T01:08:57;36.28;;;20.33;;
39266;SDS011;24967;51.154;13.812;2023-03-01T01:11:27;43.17;;;20.90;;
39266;SDS011;24967;51.154;13.812;2023-03-01T01:13:57;43.13;;;21.58;;
39266;SDS011;24967;51.154;13.812;2023-03-01T01:16:28;39.97;;;20.52;;
39266;SDS011;24967;51.154;13.812;2023-03-01T01:18:58;40.05;;;20.52;;
39266;SDS011;24967;51.154;13.812;2023-03-01T01:21:27;36.88;;;19.98;;
39266;SDS011;24967;51.154;13.812;2023-03-01T01:23:56;40.78;;;21.80;;
39266;SDS011;24967;51.154;13.812;2023-03-01T01:26:26;43.53;;;20.70;;
39266;SDS011;24967;51.154;13.812;2023-03-01T01:28:56;41.95;;;19.25;;
39266;SDS011;24967;51.154;13.812;2023-03-01T01:31:28;41.53;;;20.88;;
39266;SDS011;24967;51.154;13.812;2023-03-01T01:33:57;35.30;;;19.13;;
39266;SDS011;24967;51.154;13.812;2023-03-01T01:36:28;29.08;;;15.50;;
39266;SDS011;24967;51.154;13.812;2023-03-01T01:38:56;35.28;;;18.10;;
39266;SDS011;24967;51.154;13.812;2023-03-01T01:41:23;33.78;;;17.48;;
39266;SDS011;24967;51.154;13.812;2023-03-01T01:46:41;33.20;;;17.60;;
39266;SDS011;24967;51.154;13.812;2023-03-01T01:49:15;32.42;;;16.15;;
39266;SDS011;24967;51.154;13.812;2023-03-01T01:51:51;29.58;;;16.00;;
39266;SDS011;24967;51.154;13.812;2023-03-01T01:54:24;32.30;;;16.70;;
39266;SDS011;24967;51.154;13.812;2023-03-01T01:56:56;31.95;;;17.25;;
39266;SDS011;24967;51.154;13.812;2023-03-01T01:59:28;35.30;;;16.85;;
39266;SDS011;24967;51.154;13.812;2023-03-01T02:02:00;42.78;;;16.70;;
39266;SDS011;24967;51.154;13.812;2023-03-01T02:04:32;34.35;;;16.20;;
39266;SDS011;24967;51.154;13.812;2023-03-01T02:07:02;32.20;;;15.85;;
39266;SDS011;24967;51.154;13.812;2023-03-01T02:09:34;31.10;;;15.70;;
39266;SDS011;24967;51.154;13.812;2023-03-01T02:12:06;30.48;;;15.20;;
39266;SDS011;24967;51.154;13.812;2023-03-01T02:14:33;34.90;;;16.75;;
39266;SDS011;24967;51.154;13.812;2023-03-01T02:17:01;33.47;;;15.95;;
39266;SDS011;24967;51.154;13.812;2023-03-01T02:19:35;31.83;;;16.67;;
39266;SDS011;24967;51.154;13.812;2023-03-01T02:22:13;33.13;;;17.55;;
39266;SDS011;24967;51.154;13.812;2023-03-01T02:24:48;28.73;;;14.90;;
39266;SDS011;24967;51.154;13.812;2023-03-01T02:27:30;26.88;;;14.27;;
39266;SDS011;24967;51.154;13.812;2023-03-01T02:30:07;27.08;;;14.65;;
39266;SDS011;24967;51.154;13.812;2023-03-01T02:32:38;26.48;;;14.63;;
39266;SDS011;24967;51.154;13.812;2023-03-01T02:35:08;32.67;;;16.08;;
39266;SDS011;24967;51.154;13.812;2023-03-01T02:37:38;30.65;;;14.57;;
39266;SDS011;24967;51.154;13.812;2023-03-01T02:40:08;30.77;;;14.75;;
39266;SDS011;24967;51.154;13.812;2023-03-01T02:42:43;31.60;;;15.05;;
39266;SDS011;24967;51.154;13.812;2023-03-01T02:45:20;26.33;;;14.13;;
39266;SDS011;24967;51.154;13.812;2023-03-01T02:47:56;31.55;;;13.93;;
39266;SDS011;24967;51.154;13.812;2023-03-01T02:50:41;26.10;;;13.13;;
39266;SDS011;24967;51.154;13.812;2023-03-01T02:53:19;26.35;;;13.20;;
39266;SDS011;24967;51.154;13.812;2023-03-01T02:55:55;27.23;;;13.60;;
39266;SDS011;24967;51.154;13.812;2023-03-01T02:58:24;30.15;;;13.73;;
39266;SDS011;24967;51.154;13.812;2023-03-01T03:00:53;24.20;;;13.50;;
39266;SDS011;24967;51.154;13.812;2023-03-01T03:03:22;32.13;;;13.80;;
39266;SDS011;24967;51.154;13.812;2023-03-01T03:05:50;28.85;;;14.85;;
39266;SDS011;24967;51.154;13.812;2023-03-01T03:08:19;25.08;;;14.02;;
39266;SDS011;24967;51.154;13.812;2023-03-01T03:10:49;22.58;;;12.50;;
39266;SDS011;24967;51.154;13.812;2023-03-01T03:13:18;26.38;;;12.98;;
39266;SDS011;24967;51.154;13.812;2023-03-01T03:15:47;24.15;;;12.43;;
39266;SDS011;24967;51.154;13.812;2023-03-01T03:18:15;27.70;;;13.88;;
39266;SDS011;24967;51.154;13.812;2023-03-01T03:23:17;23.70;;;12.27;;
39266;SDS011;24967;51.154;13.812;2023-03-01T03:25:47;25.90;;;13.23;;
39266;SDS011;24967;51.154;13.812;2023-03-01T03:28:15;26.42;;;12.93;;
39266;SDS011;24967;51.154;13.812;2023-03-01T03:30:42;28.80;;;13.75;;
39266;SDS011;24967;51.154;13.812;2023-03-01T03:33:12;24.73;;;13.20;;
39266;SDS011;24967;51.154;13.812;2023-03-01T03:35:44;27.52;;;14.07;;
39266;SDS011;24967;51.154;13.812;2023-03-01T03:38:13;27.25;;;13.85;;
39266;SDS011;24967;51.154;13.812;2023-03-01T03:40:45;25.55;;;13.38;;
39266;SDS011;24967;51.154;13.812;2023-03-01T03:43:15;27.30;;;13.35;;
39266;SDS011;24967;51.154;13.812;2023-03-01T03:45:45;25.88;;;13.30;;
39266;SDS011;24967;51.154;13.812;2023-03-01T03:48:17;29.92;;;14.10;;
39266;SDS011;24967;51.154;13.812;2023-03-01T03:50:47;26.73;;;13.50;;
39266;SDS011;24967;51.154;13.812;2023-03-01T03:53:15;25.30;;;12.88;;
39266;SDS011;24967;51.154;13.812;2023-03-01T03:55:41;27.20;;;13.93;;
39266;SDS011;24967;51.154;13.812;2023-03-01T03:58:09;26.95;;;14.10;;
39266;SDS011;24967;51.154;13.812;2023-03-01T04:00:39;27.23;;;13.07;;
39266;SDS011;24967;51.154;13.812;2023-03-01T04:03:09;28.65;;;15.10;;
39266;SDS011;24967;51.154;13.812;2023-03-01T04:05:41;29.20;;;13.95;;
39266;SDS011;24967;51.154;13.812;2023-03-01T04:08:09;29.88;;;14.75;;
39266;SDS011;24967;51.154;13.812;2023-03-01T04:10:38;25.45;;;13.48;;
39266;SDS011;24967;51.154;13.812;2023-03-01T04:13:09;27.10;;;12.65;;
39266;SDS011;24967;51.154;13.812;2023-03-01T04:15:40;24.58;;;12.93;;
39266;SDS011;24967;51.154;13.812;2023-03-01T04:18:10;28.40;;;13.85;;
39266;SDS011;24967;51.154;13.812;2023-03-01T04:20:45;30.38;;;13.80;;
39266;SDS011;24967;51.154;13.812;2023-03-01T04:23:18;25.23;;;13.23;;
39266;SDS011;24967;51.154;13.812;2023-03-01T04:25:47;23.98;;;13.07;;
39266;SDS011;24967;51.154;13.812;2023-03-01T04:28:20;22.85;;;12.27;;
39266;SDS011;24967;51.154;13.812;2023-03-01T04:30:50;31.85;;;14.73;;
39266;SDS011;24967;51.154;13.812;2023-03-01T04:33:17;24.92;;;13.27;;
39266;SDS011;24967;51.154;13.812;2023-03-01T04:35:46;25.70;;;13.38;;
39266;SDS011;24967;51.154;13.812;2023-03-01T04:38:15;27.13;;;14.50;;
39266;SDS011;24967;51.154;13.812;2023-03-01T04:40:44;30.65;;;14.57;;
39266;SDS011;24967;51.154;13.812;2023-03-01T04:43:16;28.95;;;15.13;;
39266;SDS011;24967;51.154;13.812;2023-03-01T04:45:44;30.05;;;14.02;;
39266;SDS011;24967;51.154;13.812;2023-03-01T04:48:13;32.92;;;15.23;;
39266;SDS011;24967;51.154;13.812;2023-03-01T04:50:41;28.73;;;14.73;;
39266;SDS011;24967;51.154;13.812;2023-03-01T04:53:10;28.83;;;13.98;;
39266;SDS011;24967;51.154;13.812;2023-03-01T04:55:38;26.40;;;14.00;;
39266;SDS011;24967;51.154;13.812;2023-03-01T04:58:07;25.13;;;13.90;;
39266;SDS011;24967;51.154;13.812;2023-03-01T05:00:36;30.30;;;13.98;;
39266;SDS011;24967;51.154;13.812;2023-03-01T05:03:03;30.70;;;13.63;;
39266;SDS011;24967;51.154;13.812;2023-03-01T05:05:33;25.88;;;14.32;;
39266;SDS011;24967;51.154;13.812;2023-03-01T05:08:04;19.40;;;10.30;;
39266;SDS011;24967;51.154;13.812;2023-03-01T05:10:36;27.73;;;13.85;;
39266;SDS011;24967;51.154;13.812;2023-03-01T05:13:06;27.88;;;15.05;;
39266;SDS011;24967;51.154;13.812;2023-03-01T05:15:38;28.70;;;14.23;;
39266;SDS011;24967;51.154;13.812;2023-03-01T05:20:37;21.45;;;11.98;;
39266;SDS011;24967;51.154;13.812;2023-03-01T05:23:06;28.80;;;14.38;;
39266;SDS011;24967;51.154;13.812;2023-03-01T05:25:37;29.52;;;14.48;;
39266;SDS011;24967;51.154;13.812;2023-03-01T05:28:07;30.60;;;14.32;;
39266;SDS011;24967;51.154;13.812;2023-03-01T05:30:38;31.33;;;14.43;;
39266;SDS011;24967;51.154;13.812;2023-03-01T05:33:08;29.52;;;14.32;;
39266;SDS011;24967;51.154;13.812;2023-03-01T05:35:39;27.05;;;13.45;;
39266;SDS011;24967;51.154;13.812;2023-03-01T05:38:08;29.38;;;14.65;;
39266;SDS011;24967;51.154;13.812;2023-03-01T05:40:40;25.70;;;13.50;;
39266;SDS011;24967;51.154;13.812;2023-03-01T05:43:07;28.80;;;13.77;;
39266;SDS011;24967;51.154;13.812;2023-03-01T05:45:35;27.48;;;13.45;;
39266;SDS011;24967;51.154;13.812;2023-03-01T05:48:05;21.60;;;10.88;;
39266;SDS011;24967;51.154;13.812;2023-03-01T05:50:34;23.25;;;13.07;;
39266;SDS011;24967;51.154;13.812;2023-03-01T05:53:05;24.33;;;13.38;;
39266;SDS011;24967;51.154;13.812;2023-03-01T05:55:35;27.95;;;14.27;;
39266;SDS011;24967;51.154;13.812;2023-03-01T05:58:05;28.75;;;13.73;;
39266;SDS011;24967;51.154;13.812;2023-03-01T06:00:33;25.70;;;13.15;;
39266;SDS011;24967;51.154;13.812;2023-03-01T06:03:06;24.55;;;13.05;;
39266;SDS011;24967;51.154;13.812;2023-03-01T06:05:37;27.35;;;14.15;;
39266;SDS011;24967;51.154;13.812;2023-03-01T06:08:06;26.88;;;13.30;;
39266;SDS011;24967;51.154;13.812;2023-03-01T06:10:37;28.50;;;13.50;;
39266;SDS011;24967;51.154;13.812;2023-03-01T06:13:07;29.98;;;14.40;;
39266;SDS011;24967;51.154;13.812;2023-03-01T06:15:37;28.20;;;14.07;;
39266;SDS011;24967;51.154;13.812;2023-03-01T06:18:06;27.50;;;13.65;;
39266;SDS011;24967;51.154;13.812;2023-03-01T06:20:33;30.38;;;15.10;;
39266;SDS011;24967;51.154;13.812;2023-03-01T06:23:02;29.33;;;14.48;;
39266;SDS011;24967;51.154;13.812;2023-03-01T06:25:30;32.53;;;16.13;;
39266;SDS011;24967;51.154;13.812;2023-03-01T06:27:59;32.78;;;15.75;;
39266;SDS011;24967;51.154;13.812;2023-03-01T06:30:29;39.53;;;18.90;;
39266;SDS011;24967;51.154;13.812;2023-03-01T06:32:56;41.08;;;18.80;;
39266;SDS011;24967;51.154;13.812;2023-03-01T06:35:26;42.35;;;18.17;;
39266;SDS011;24967;51.154;13.812;2023-03-01T06:37:57;31.90;;;14.47;;
39266;SDS011;24967;51.154;13.812;2023-03-01T06:40:27;30.33;;;14.95;;
39266;SDS011;24967;51.154;13.812;2023-03-01T06:42:56;39.67;;;18.73;;
39266;SDS011;24967;51.154;13.812;2023-03-01T06:45:24;37.97;;;18.63;;
39266;SDS011;24967;51.154;13.812;2023-03-01T06:47:57;37.97;;;18.85;;
39266;SDS011;24967;51.154;13.812;2023-03-01T06:50:29;39.35;;;18.63;;
39266;SDS011;24967;51.154;13.812;2023-03-01T06:52:56;41.55;;;18.40;;
39266;SDS011;24967;51.154;13.812;2023-03-01T06:55:23;42.38;;;18.52;;
39266;SDS011;24967;51.154;13.812;2023-03-01T06:57:53;37.92;;;18.85;;
39266;SDS011;24967;51.154;13.812;2023-03-01T07:00:23;38.60;;;19.23;;
39266;SDS011;24967;51.154;13.812;2023-03-01T07:02:53;36.15;;;18.73;;
39266;SDS011;24967;51.154;13.812;2023-03-01T07:05:25;41.75;;;19.23;;
39266;SDS011;24967;51.154;13.812;2023-03-01T07:07:53;38.72;;;19.52;;
39266;SDS011;24967;51.154;13.812;2023-03-01T07:10:21;38.38;;;18.90;;
39266;SDS011;24967;51.154;13.812;2023-03-01T07:13:00;46.58;;;22.08;;
39266;SDS011;24967;51.154;13.812;2023-03-01T07:15:32;41.60;;;19.88;;
39266;SDS011;24967;51.154;13.812;2023-03-01T07:18:02;41.42;;;20.17;;
39266;SDS011;24967;51.154;13.812;2023-03-01T07:20:31;45.92;;;20.73;;
39266;SDS011;24967;51.154;13.812;2023-03-01T07:22:59;42.42;;;19.85;;
39266;SDS011;24967;51.154;13.812;2023-03-01T07:25:25;38.75;;;19.63;;
39266;SDS011;24967;51.154;13.812;2023-03-01T07:27:52;44.95;;;21.60;;
39266;SDS011;24967;51.154;13.812;2023-03-01T07:30:21;43.60;;;21.67;;
39266;SDS011;24967;51.154;13.812;2023-03-01T07:32:51;37.35;;;20.58;;
39266;SDS011;24967;51.154;13.812;2023-03-01T07:35:22;40.03;;;21.17;;
39266;SDS011;24967;51.154;13.812;2023-03-01T07:37:52;48.20;;;22.58;;
39266;SDS011;24967;51.154;13.812;2023-03-01T07:40:20;39.70;;;20.52;;
39266;SDS011;24967;51.154;13.812;2023-03-01T07:42:49;46.47;;;21.65;;
39266;SDS011;24967;51.154;13.812;2023-03-01T07:45:22;46.65;;;23.02;;
39266;SDS011;24967;51.154;13.812;2023-03-01T07:47:51;45.90;;;21.58;;
39266;SDS011;24967;51.154;13.812;2023-03-01T07:50:19;46.13;;;22.10;;
39266;SDS011;24967;51.154;13.812;2023-03-01T07:52:50;48.90;;;22.13;;
39266;SDS011;24967;51.154;13.812;2023-03-01T07:55:18;48.42;;;22.60;;
39266;SDS011;24967;51.154;13.812;2023-03-01T07:57:46;56.75;;;23.45;;
39266;SDS011;24967;51.154;13.812;2023-03-01T08:00:14;47.97;;;22.25;;
39266;SDS011;24967;51.154;13.812;2023-03-01T08:02:43;46.22;;;22.40;;
39266;SDS011;24967;51.154;13.812;2023-03-01T08:05:11;44.05;;;22.58;;
39266;SDS011;24967;51.154;13.812;2023-03-01T08:07:40;40.35;;;21.67;;
39266;SDS011;24967;51.154;13.812;2023-03-01T08:10:11;47.67;;;22.30;;
39266;SDS011;24967;51.154;13.812;2023-03-01T08:12:40;48.50;;;23.08;;
39266;SDS011;24967;51.154;13.812;2023-03-01T08:15:08;47.33;;;22.83;;
39266;SDS011;24967;51.154;13.812;2023-03-01T08:17:37;46.08;;;22.67;;
39266;SDS011;24967;51.154;13.812;2023-03-01T08:20:06;48.95;;;22.70;;
39266;SDS011;24967;51.154;13.812;2023-03-01T08:22:37;46.30;;;24.20;;
39266;SDS011;24967;51.154;13.812;2023-03-01T08:25:05;52.53;;;23.00;;
39266;SDS011;24967;51.154;13.812;2023-03-01T08:27:34;55.17;;;24.63;;
39266;SDS011;24967;51.154;13.812;2023-03-01T08:30:03;48.72;;;23.67;;
39266;SDS011;24967;51.154;13.812;2023-03-01T08:32:34;54.08;;;26.17;;
39266;SDS011;24967;51.154;13.812;2023-03-01T08:35:04;49.83;;;23.92;;
39266;SDS011;24967;51.154;13.812;2023-03-01T08:37:31;53.70;;;26.08;;
39266;SDS011;24967;51.154;13.812;2023-03-01T08:39:59;52.80;;;26.35;;
39266;SDS011;24967;51.154;13.812;2023-03-01T08:42:25;53.42;;;26.33;;
39266;SDS011;24967;51.154;13.812;2023-03-01T08:44:54;57.33;;;26.95;;
39266;SDS011;24967;51.154;13.812;2023-03-01T08:47:21;55.05;;;27.35;;
39266;SDS011;24967;51.154;13.812;2023-03-01T08:49:49;53.58;;;25.38;;
39266;SDS011;24967;51.154;13.812;2023-03-01T08:52:16;52.08;;;25.70;;
39266;SDS011;24967;51.154;13.812;2023-03-01T08:54:43;51.90;;;25.63;;
39266;SDS011;24967;51.154;13.812;2023-03-01T08:57:10;54.22;;;25.48;;
39266;SDS011;24967;51.154;13.812;2023-03-01T08:59:37;49.47;;;24.50;;
39266;SDS011;24967;51.154;13.812;2023-03-01T09:02:08;53.28;;;25.27;;
39266;SDS011;24967;51.154;13.812;2023-03-01T09:04:38;48.63;;;24.48;;
39266;SDS011;24967;51.154;13.812;2023-03-01T09:07:05;48.80;;;24.85;;
39266;SDS011;24967;51.154;13.812;2023-03-01T09:09:32;42.92;;;22.75;;
39266;SDS011;24967;51.154;13.812;2023-03-01T09:11:59;43.78;;;22.55;;
39266;SDS011;24967;51.154;13.812;2023-03-01T09:14:26;47.55;;;24.63;;
39266;SDS011;24967;51.154;13.812;2023-03-01T09:16:53;54.42;;;25.05;;
39266;SDS011;24967;51.154;13.812;2023-03-01T09:19:21;54.28;;;26.73;;
39266;SDS011;24967;51.154;13.812;2023-03-01T09:21:48;53.67;;;25.17;;
39266;SDS011;24967;51.154;13.812;2023-03-01T09:24:19;50.33;;;26.30;;
39266;SDS011;24967;51.154;13.812;2023-03-01T09:26:47;44.05;;;23.30;;
39266;SDS011;24967;51.154;13.812;2023-03-01T09:29:15;46.88;;;25.48;;
39266;SDS011;24967;51.154;13.812;2023-03-01T09:31:42;44.20;;;23.75;;
39266;SDS011;24967;51.154;13.812;2023-03-01T09:34:10;41.38;;;22.95;;
39266;SDS011;24967;51.154;13.812;2023-03-01T09:36:40;38.65;;;22.10;;
39266;SDS011;24967;51.154;13.812;2023-03-01T09:39:06;43.38;;;22.73;;
39266;SDS011;24967;51.154;13.812;2023-03-01T09:41:38;35.30;;;19.20;;
39266;SDS011;24967;51.154;13.812;2023-03-01T09:44:13;34.53;;;19.42;;
39266;SDS011;24967;51.154;13.812;2023-03-01T09:46:48;34.20;;;17.85;;
39266;SDS011;24967;51.154;13.812;2023-03-01T09:49:16;34.83;;;18.33;;
39266;SDS011;24967;51.154;13.812;2023-03-01T09:51:50;33.80;;;19.38;;
39266;SDS011;24967;51.154;13.812;2023-03-01T09:54:22;31.88;;;18.67;;
39266;SDS011;24967;51.154;13.812;2023-03-01T09:56:54;37.25;;;18.65;;
39266;SDS011;24967;51.154;13.812;2023-03-01T09:59:28;32.20;;;17.85;;
39266;SDS011;24967;51.154;13.812;2023-03-01T10:02:00;35.70;;;19.20;;
39266;SDS011;24967;51.154;13.812;2023-03-01T10:04:42;37.65;;;19.67;;
39266;SDS011;24967;51.154;13.812;2023-03-01T10:09:45;44.55;;;18.67;;
39266;SDS011;24967;51.154;13.812;2023-03-01T10:12:15;41.75;;;19.65;;
39266;SDS011;24967;51.154;13.812;2023-03-01T10:14:48;48.40;;;19.40;;
39266;SDS011;24967;51.154;13.812;2023-03-01T10:17:24;39.15;;;18.38;;
39266;SDS011;24967;51.154;13.812;2023-03-01T10:19:56;34.88;;;17.75;;
39266;SDS011;24967;51.154;13.812;2023-03-01T10:22:42;35.53;;;18.42;;
39266;SDS011;24967;51.154;13.812;2023-03-01T10:25:14;30.38;;;16.25;;
39266;SDS011;24967;51.154;13.812;2023-03-01T10:27:43;32.88;;;16.95;;
39266;SDS011;24967;51.154;13.812;2023-03-01T10:30:18;54.88;;;24.25;;
39266;SDS011;24967;51.154;13.812;2023-03-01T10:35:17;36.78;;;18.30;;
39266;SDS011;24967;51.154;13.812;2023-03-01T10:38:02;33.75;;;16.98;;
39266;SDS011;24967;51.154;13.812;2023-03-01T10:40:30;29.50;;;16.33;;
39266;SDS011;24967;51.154;13.812;2023-03-01T10:42:58;27.27;;;16.05;;
39266;SDS011;24967;51.154;13.812;2023-03-01T10:45:31;37.55;;;19.10;;
39266;SDS011;24967;51.154;13.812;2023-03-01T10:48:05;26.98;;;16.23;;
39266;SDS011;24967;51.154;13.812;2023-03-01T10:50:40;23.92;;;15.15;;
39266;SDS011;24967;51.154;13.812;2023-03-01T10:53:19;26.35;;;17.10;;
39266;SDS011;24967;51.154;13.812;2023-03-01T10:55:58;25.75;;;15.60;;
39266;SDS011;24967;51.154;13.812;2023-03-01T10:58:27;33.10;;;16.63;;
39266;SDS011;24967;51.154;13.812;2023-03-01T11:00:56;25.92;;;15.13;;
39266;SDS011;24967;51.154;13.812;2023-03-01T11:03:26;25.02;;;15.55;;
39266;SDS011;24967;51.154;13.812;2023-03-01T11:05:55;24.63;;;15.48;;
39266;SDS011;24967;51.154;13.812;2023-03-01T11:08:39;27.95;;;16.00;;
39266;SDS011;24967;51.154;13.812;2023-03-01T11:11:19;24.92;;;14.38;;
39266;SDS011;24967;51.154;13.812;2023-03-01T11:13:51;23.63;;;14.10;;
39266;SDS011;24967;51.154;13.812;2023-03-01T11:16:24;24.83;;;15.05;;
39266;SDS011;24967;51.154;13.812;2023-03-01T11:18:58;25.65;;;15.43;;
39266;SDS011;24967;51.154;13.812;2023-03-01T11:21:28;22.85;;;15.27;;
39266;SDS011;24967;51.154;13.812;2023-03-01T11:24:05;26.30;;;14.40;;
39266;SDS011;24967;51.154;13.812;2023-03-01T11:26:38;26.27;;;15.30;;
39266;SDS011;24967;51.154;13.812;2023-03-01T11:29:11;24.50;;;15.20;;
39266;SDS011;24967;51.154;13.812;2023-03-01T11:31:44;26.35;;;15.00;;
39266;SDS011;24967;51.154;13.812;2023-03-01T11:34:13;22.85;;;13.75;;
39266;SDS011;24967;51.154;13.812;2023-03-01T11:36:52;24.25;;;14.90;;
39266;SDS011;24967;51.154;13.812;2023-03-01T11:39:27;24.58;;;15.95;;
39266;SDS011;24967;51.154;13.812;2023-03-01T11:42:01;24.50;;;15.02;;
39266;SDS011;24967;51.154;13.812;2023-03-01T11:44:33;27.15;;;15.68;;
39266;SDS011;24967;51.154;13.812;2023-03-01T11:47:08;27.73;;;15.23;;
39266;SDS011;24967;51.154;13.812;2023-03-01T11:50:14;24.08;;;14.30;;
39266;SDS011;24967;51.154;13.812;2023-03-01T11:53:23;22.27;;;13.02;;
39266;SDS011;24967;51.154;13.812;2023-03-01T12:00:11;20.08;;;12.45;;
39266;SDS011;24967;51.154;13.812;2023-03-01T12:03:38;23.50;;;12.93;;
39266;SDS011;24967;51.154;13.812;2023-03-01T12:06:47;20.08;;;12.90;;
39266;SDS011;24967;51.154;13.812;2023-03-01T12:09:27;22.67;;;13.00;;
39266;SDS011;24967;51.154;13.812;2023-03-01T12:12:21;25.50;;;13.55;;
39266;SDS011;24967;51.154;13.812;2023-03-01T12:14:55;27.27;;;13.82;;
39266;SDS011;24967;51.154;13.812;2023-03-01T12:17:46;20.27;;;13.00;;
39266;SDS011;24967;51.154;13.812;2023-03-01T12:20:26;22.10;;;13.93;;
39266;SDS011;24967;51.154;13.812;2023-03-01T12:23:05;21.52;;;13.77;;
39266;SDS011;24967;51.154;13.812;2023-03-01T12:26:06;22.05;;;13.38;;
39266;SDS011;24967;51.154;13.812;2023-03-01T12:28:40;22.52;;;12.93;;
39266;SDS011;24967;51.154;13.812;2023-03-01T12:35:23;22.83;;;14.10;;
39266;SDS011;24967;51.154;13.812;2023-03-01T12:38:20;26.00;;;14.57;;
39266;SDS011;24967;51.154;13.812;2023-03-01T12:41:47;24.63;;;14.38;;
39266;SDS011;24967;51.154;13.812;2023-03-01T12:45:21;24.63;;;13.55;;
39266;SDS011;24967;51.154;13.812;2023-03-01T12:48:33;23.48;;;13.57;;
39266;SDS011;24967;51.154;13.812;2023-03-01T12:51:11;23.15;;;13.80;;
39266;SDS011;24967;51.154;13.812;2023-03-01T12:53:43;23.50;;;14.43;;
39266;SDS011;24967;51.154;13.812;2023-03-01T12:56:14;22.20;;;13.40;;
39266;SDS011;24967;51.154;13.812;2023-03-01T12:58:47;26.27;;;14.00;;
39266;SDS011;24967;51.154;13.812;2023-03-01T13:01:26;23.60;;;13.63;;
39266;SDS011;24967;51.154;13.812;2023-03-01T13:04:14;23.65;;;14.10;;
39266;SDS011;24967;51.154;13.812;2023-03-01T13:06:53;22.63;;;14.68;;
39266;SDS011;24967;51.154;13.812;2023-03-01T13:09:30;23.08;;;13.77;;
39266;SDS011;24967;51.154;13.812;2023-03-01T13:12:04;25.85;;;15.13;;
39266;SDS011;24967;51.154;13.812;2023-03-01T13:15:25;25.73;;;14.02;;
39266;SDS011;24967;51.154;13.812;2023-03-01T13:27:10;22.90;;;13.15;;
39266;SDS011;24967;51.154;13.812;2023-03-01T13:29:48;25.77;;;13.57;;
39266;SDS011;24967;51.154;13.812;2023-03-01T13:32:21;23.75;;;14.93;;
39266;SDS011;24967;51.154;13.812;2023-03-01T13:34:56;20.88;;;12.80;;
39266;SDS011;24967;51.154;13.812;2023-03-01T13:37:28;24.75;;;14.32;;
39266;SDS011;24967;51.154;13.812;2023-03-01T13:40:08;19.10;;;12.32;;
39266;SDS011;24967;51.154;13.812;2023-03-01T13:43:29;21.48;;;13.35;;
39266;SDS011;24967;51.154;13.812;2023-03-01T13:45:57;22.45;;;12.98;;
39266;SDS011;24967;51.154;13.812;2023-03-01T13:48:26;23.00;;;13.30;;
39266;SDS011;24967;51.154;13.812;2023-03-01T13:50:57;18.92;;;12.32;;
39266;SDS011;24967;51.154;13.812;2023-03-01T13:53:26;22.05;;;12.80;;
39266;SDS011;24967;51.154;13.812;2023-03-01T13:58:28;21.25;;;13.52;;
39266;SDS011;24967;51.154;13.812;2023-03-01T14:00:57;21.85;;;13.45;;
39266;SDS011;24967;51.154;13.812;2023-03-01T14:03:27;20.42;;;12.07;;
39266;SDS011;24967;51.154;13.812;2023-03-01T14:05:59;21.65;;;13.07;;
39266;SDS011;24967;51.154;13.812;2023-03-01T14:08:31;21.20;;;12.75;;
39266;SDS011;24967;51.154;13.812;2023-03-01T14:20:31;21.60;;;13.30;;
39266;SDS011;24967;51.154;13.812;2023-03-01T14:26:11;20.40;;;12.80;;
